createdAt,value
2022-08-03T00:02:19.907Z,98949.88
2022-08-03T00:04:48.570Z,98942.09
2022-08-03T00:07:18.761Z,98937.88
2022-08-03T00:09:47.207Z,98946.81
2022-08-03T00:12:15.860Z,98943.34
2022-08-03T00:14:44.785Z,98938.88
2022-08-03T00:17:13.146Z,98934.88
2022-08-03T00:19:41.567Z,98943.06
2022-08-03T00:22:10.119Z,98947.28
2022-08-03T00:24:40.006Z,98921.00
2022-08-03T00:27:08.452Z,98936.16
2022-08-03T00:30:00.017Z,98946.19
2022-08-03T00:32:25.620Z,98948.44
2022-08-03T00:34:57.842Z,98947.03
2022-08-03T00:37:41.423Z,98941.88
2022-08-03T00:40:14.382Z,98942.56
2022-08-03T00:42:51.017Z,98941.34
2022-08-03T00:45:19.959Z,98939.25
2022-08-03T00:47:48.816Z,98936.69
2022-08-03T00:50:18.424Z,98937.28
2022-08-03T00:52:47.952Z,98916.19
2022-08-03T00:55:18.128Z,98938.66
2022-08-03T00:57:47.694Z,98939.69
2022-08-03T01:00:19.270Z,98931.06
2022-08-03T01:02:47.799Z,98941.09
2022-08-03T01:05:16.763Z,98934.44
2022-08-03T01:08:01.789Z,98928.19
2022-08-03T01:10:41.230Z,98929.31
2022-08-03T01:14:00.314Z,98929.09
2022-08-03T01:16:22.007Z,98932.78
2022-08-03T01:19:20.524Z,98921.00
2022-08-03T01:22:03.154Z,98930.69
2022-08-03T01:24:44.936Z,98918.91
2022-08-03T01:27:19.514Z,98927.34
2022-08-03T01:30:03.793Z,98921.59
2022-08-03T01:32:58.533Z,98923.41
2022-08-03T01:35:38.799Z,98915.78
2022-08-03T01:38:13.497Z,98914.31
2022-08-03T01:40:45.028Z,98926.44
2022-08-03T01:44:28.057Z,98929.22
2022-08-03T01:46:09.306Z,98929.13
2022-08-03T01:48:39.024Z,98934.97
2022-08-03T01:51:10.271Z,98929.59
2022-08-03T01:53:39.710Z,98933.19
2022-08-03T01:56:08.999Z,98933.59
2022-08-03T01:58:38.537Z,98934.50
2022-08-03T02:01:10.666Z,98926.75
2022-08-03T02:04:00.772Z,98933.38
2022-08-03T02:07:00.008Z,98935.41
2022-08-03T02:09:22.921Z,98939.97
2022-08-03T02:11:53.522Z,98941.22
2022-08-03T02:14:23.571Z,98953.09
2022-08-03T02:16:54.286Z,98942.59
2022-08-03T02:19:24.664Z,98948.19
2022-08-03T02:21:57.042Z,98953.00
2022-08-03T02:24:30.146Z,98947.78
2022-08-03T02:27:00.263Z,98935.50
2022-08-03T02:29:40.243Z,98952.53
2022-08-03T02:32:14.110Z,98959.78
2022-08-03T02:34:46.642Z,98947.16
2022-08-03T02:37:16.413Z,98951.25
2022-08-03T02:39:46.163Z,98945.41
2022-08-03T02:42:17.951Z,98950.75
2022-08-03T02:44:51.488Z,98962.63
2022-08-03T02:47:22.743Z,98958.16
2022-08-03T02:49:53.972Z,98956.75
2022-08-03T02:52:24.491Z,98959.69
2022-08-03T02:54:56.548Z,98956.44
2022-08-03T02:57:26.898Z,98941.38
2022-08-03T02:59:56.858Z,98959.88
2022-08-03T03:02:27.043Z,98966.38
2022-08-03T03:05:53.052Z,98965.81
2022-08-03T03:07:53.043Z,98951.59
2022-08-03T03:10:23.845Z,98965.41
2022-08-03T03:12:53.834Z,98969.88
2022-08-03T03:15:22.543Z,98970.31
2022-08-03T03:17:54.840Z,98962.34
2022-08-03T03:20:29.861Z,98958.91
2022-08-03T03:23:01.374Z,98955.47
2022-08-03T03:25:32.238Z,98970.91
2022-08-03T03:28:01.409Z,98956.59
2022-08-03T03:30:31.300Z,98972.28
2022-08-03T03:33:01.173Z,98970.50
2022-08-03T03:35:30.035Z,98962.03
2022-08-03T03:37:58.711Z,98981.72
2022-08-03T03:40:27.783Z,98985.28
2022-08-03T03:42:56.432Z,98982.63
2022-08-03T03:45:25.775Z,98983.47
2022-08-03T03:47:54.476Z,98985.03
2022-08-03T03:50:25.406Z,98989.38
2022-08-03T03:52:53.765Z,98976.97
2022-08-03T03:55:22.268Z,98992.41
2022-08-03T03:57:50.653Z,98996.06
2022-08-03T04:00:20.445Z,98988.84
2022-08-03T04:02:49.128Z,98994.06
2022-08-03T04:05:34.720Z,98996.22
2022-08-03T04:08:27.664Z,98983.91
2022-08-03T04:11:04.323Z,98996.63
2022-08-03T04:13:35.767Z,98992.03
2022-08-03T04:16:05.779Z,98987.88
2022-08-03T04:18:37.056Z,98983.66
2022-08-03T04:21:09.956Z,99000.94
2022-08-03T04:23:42.950Z,99009.19
2022-08-03T04:26:14.964Z,99013.63
2022-08-03T04:28:46.645Z,99011.75
2022-08-03T04:31:16.383Z,99011.06
2022-08-03T04:33:46.670Z,99006.91
2022-08-03T04:36:19.067Z,98989.81
2022-08-03T04:38:56.985Z,98999.25
2022-08-03T04:41:27.777Z,99007.94
2022-08-03T04:43:57.963Z,99014.69
2022-08-03T04:46:29.912Z,99012.81
2022-08-03T04:48:58.986Z,99017.19
2022-08-03T04:51:27.912Z,99013.31
2022-08-03T04:53:57.950Z,99003.59
2022-08-03T04:56:26.230Z,99028.59
2022-08-03T04:58:55.635Z,99017.34
2022-08-03T05:01:24.234Z,99008.78
2022-08-03T05:03:52.861Z,99007.69
2022-08-03T05:06:21.257Z,99006.88
2022-08-03T05:08:53.840Z,99010.09
2022-08-03T05:11:23.733Z,99014.03
2022-08-03T05:13:52.257Z,99016.81
2022-08-03T05:16:20.672Z,99021.50
2022-08-03T05:18:49.579Z,99013.78
2022-08-03T05:21:18.026Z,99006.34
2022-08-03T05:23:46.667Z,99022.34
2022-08-03T05:26:15.368Z,99017.31
2022-08-03T05:28:49.921Z,99020.03
2022-08-03T05:31:20.806Z,99022.81
2022-08-03T05:39:33.288Z,99002.13
2022-08-03T05:42:31.253Z,99025.94
2022-08-03T05:45:18.482Z,99018.53
2022-08-03T05:54:18.177Z,98999.06
2022-08-03T05:56:57.437Z,99029.06
2022-08-03T05:59:38.879Z,99000.59
2022-08-03T06:04:47.080Z,99031.03
2022-08-03T06:07:18.537Z,99015.00
2022-08-03T06:10:37.242Z,98947.59
2022-08-03T06:12:57.153Z,99035.28
2022-08-03T06:15:28.967Z,99025.88
2022-08-03T06:18:01.988Z,99028.22
2022-08-03T06:20:31.488Z,99018.81
2022-08-03T06:23:54.660Z,99032.03
2022-08-03T06:25:57.598Z,98981.72
2022-08-03T06:31:18.202Z,99000.06
2022-08-03T06:34:33.360Z,98991.09
2022-08-03T06:36:38.934Z,99024.59
2022-08-03T06:39:08.377Z,99026.50
2022-08-03T06:41:37.527Z,99029.22
2022-08-03T06:44:07.355Z,99041.66
2022-08-03T06:46:36.482Z,99021.81
2022-08-03T06:49:06.501Z,99040.84
2022-08-03T06:52:03.051Z,99006.22
2022-08-03T06:54:26.034Z,99036.91
2022-08-03T06:56:55.829Z,99034.47
2022-08-03T07:00:06.603Z,99039.41
2022-08-03T07:02:12.717Z,99049.84
2022-08-03T07:04:49.354Z,99044.47
2022-08-03T07:07:19.639Z,99027.69
2022-08-03T07:09:56.768Z,99029.22
2022-08-03T07:12:28.132Z,99050.19
2022-08-03T07:15:00.907Z,99043.06
2022-08-03T07:17:34.840Z,99041.84
2022-08-03T07:20:07.120Z,99046.84
2022-08-03T07:22:36.147Z,99030.81
2022-08-03T07:25:05.389Z,99022.16
2022-08-03T07:27:34.228Z,99055.19
2022-08-03T07:30:03.073Z,99036.03
2022-08-03T07:32:32.549Z,99061.66
2022-08-03T07:35:01.771Z,99058.19
2022-08-03T07:37:34.724Z,99058.91
2022-08-03T07:40:05.583Z,99042.97
2022-08-03T07:42:34.666Z,99047.59
2022-08-03T07:45:03.311Z,99064.16
2022-08-03T07:47:35.718Z,99035.50
2022-08-03T07:50:08.601Z,99067.19
2022-08-03T07:52:52.226Z,99060.56
2022-08-03T07:55:22.454Z,99067.06
2022-08-03T07:58:05.163Z,99063.53
2022-08-03T08:00:34.182Z,99061.34
2022-08-03T08:03:02.845Z,99037.75
2022-08-03T08:05:31.841Z,99068.94
2022-08-03T08:08:01.901Z,99066.44
2022-08-03T08:10:31.302Z,99074.81
2022-08-03T08:13:00.161Z,99068.16
2022-08-03T08:15:29.286Z,99038.13
2022-08-03T08:17:59.384Z,99062.66
2022-08-03T08:20:31.496Z,99072.97
2022-08-03T08:23:03.500Z,99072.19
2022-08-03T08:25:37.616Z,99072.47
2022-08-03T08:28:29.506Z,99070.34
2022-08-03T08:30:55.129Z,99077.53
2022-08-03T08:33:24.117Z,99077.22
2022-08-03T08:35:55.026Z,99067.28
2022-08-03T08:38:25.400Z,99066.28
2022-08-03T08:40:57.104Z,99072.59
2022-08-03T08:43:25.786Z,99077.69
2022-08-03T08:45:55.931Z,99029.72
2022-08-03T08:48:27.247Z,99075.59
2022-08-03T08:50:56.965Z,99069.75
2022-08-03T08:53:30.379Z,99081.53
2022-08-03T08:56:03.686Z,99079.22
2022-08-03T08:58:39.005Z,99073.72
2022-08-03T09:01:07.619Z,99080.72
2022-08-03T09:03:36.201Z,99074.72
2022-08-03T09:06:05.609Z,99082.09
2022-08-03T09:08:36.063Z,99062.81
2022-08-03T09:11:04.983Z,99078.84
2022-08-03T09:13:35.215Z,99069.75
2022-08-03T09:16:15.471Z,99080.78
2022-08-03T09:18:45.158Z,99087.16
2022-08-03T09:21:35.728Z,99079.59
2022-08-03T09:24:16.454Z,99086.41
2022-08-03T09:26:54.356Z,99065.38
2022-08-03T09:29:24.077Z,99084.38
2022-08-03T09:32:03.147Z,99068.66
2022-08-03T09:34:32.284Z,99070.78
2022-08-03T09:37:01.261Z,99070.44
2022-08-03T09:39:40.612Z,99075.13
2022-08-03T09:42:14.743Z,99078.47
2022-08-03T09:44:45.708Z,99047.56
2022-08-03T09:47:16.207Z,99072.13
2022-08-03T09:49:58.926Z,99073.66
2022-08-03T09:52:49.661Z,99062.28
2022-08-03T09:56:32.994Z,99074.22
2022-08-03T09:58:47.295Z,99069.66
2022-08-03T10:01:25.396Z,99072.59
2022-08-03T10:04:04.235Z,99061.81
2022-08-03T10:06:33.553Z,99076.94
2022-08-03T10:09:11.400Z,99073.53
2022-08-03T10:11:42.825Z,99078.69
2022-08-03T10:14:19.298Z,99080.34
2022-08-03T10:16:49.886Z,99089.31
2022-08-03T10:19:18.700Z,99086.81
2022-08-03T10:21:51.245Z,99088.81
2022-08-03T10:24:25.949Z,99080.94
2022-08-03T10:27:02.945Z,99097.56
2022-08-03T10:29:36.340Z,99068.25
2022-08-03T10:32:10.681Z,99095.13
2022-08-03T10:34:44.682Z,99088.91
2022-08-03T10:37:16.491Z,99088.22
2022-08-03T10:39:54.732Z,99086.34
2022-08-03T10:42:27.613Z,99081.44
2022-08-03T10:45:06.098Z,99084.16
2022-08-03T10:47:36.711Z,99097.22
2022-08-03T10:50:06.615Z,99089.00
2022-08-03T10:52:41.021Z,99096.66
2022-08-03T10:55:49.384Z,99087.94
2022-08-03T10:58:57.077Z,99110.25
2022-08-03T11:01:59.061Z,99108.03
2022-08-03T11:04:30.709Z,99113.59
2022-08-03T11:07:23.182Z,99114.63
2022-08-03T11:09:53.356Z,99117.00
2022-08-03T11:12:30.314Z,99105.44
2022-08-03T11:15:04.361Z,99101.75
2022-08-03T11:17:46.925Z,99117.25
2022-08-03T11:20:50.958Z,99110.56
2022-08-03T11:24:02.127Z,99124.00
2022-08-03T11:26:15.830Z,99114.03
2022-08-03T11:28:46.465Z,99100.25
2022-08-03T11:31:51.698Z,99110.75
2022-08-03T11:34:20.754Z,99111.03
2022-08-03T11:37:22.328Z,99115.00
2022-08-03T11:39:54.935Z,99107.19
2022-08-03T11:42:48.334Z,99108.13
2022-08-03T11:45:20.028Z,99076.78
2022-08-03T11:47:55.223Z,99104.16
2022-08-03T11:50:24.640Z,99108.03
2022-08-03T11:52:53.652Z,99081.00
2022-08-03T11:55:22.457Z,99102.84
2022-08-03T11:59:00.774Z,99104.78
2022-08-03T12:00:40.561Z,99108.03
2022-08-03T12:03:13.937Z,99105.78
2022-08-03T12:05:51.932Z,99103.34
2022-08-03T12:08:34.483Z,99093.63
2022-08-03T12:11:06.862Z,99098.59
2022-08-03T12:14:45.074Z,99099.03
2022-08-03T12:16:29.178Z,99099.50
2022-08-03T12:19:01.191Z,99098.53
2022-08-03T12:21:30.590Z,99093.53
2022-08-03T12:24:00.680Z,99093.09
2022-08-03T12:26:30.668Z,99096.19
2022-08-03T12:28:59.692Z,99085.72
2022-08-03T12:31:28.084Z,99075.97
2022-08-03T12:34:00.035Z,99089.47
2022-08-03T12:36:29.217Z,99090.00
2022-08-03T12:38:59.567Z,99088.75
2022-08-03T12:41:34.049Z,99093.50
2022-08-03T12:44:04.533Z,99075.50
2022-08-03T12:46:34.787Z,99097.81
2022-08-03T12:49:15.668Z,99081.47
2022-08-03T12:52:01.728Z,99104.72
2022-08-03T12:54:36.230Z,99104.16
2022-08-03T12:57:06.519Z,99077.75
2022-08-03T12:59:41.175Z,99086.66
2022-08-03T13:02:17.909Z,99098.50
2022-08-03T13:04:51.221Z,99092.00
2022-08-03T13:07:21.399Z,99091.00
2022-08-03T13:09:53.161Z,99081.53
2022-08-03T13:12:23.349Z,99102.16
2022-08-03T13:14:54.559Z,99087.22
2022-08-03T13:17:23.185Z,99085.59
2022-08-03T13:19:53.605Z,99102.09
2022-08-03T13:22:24.879Z,99093.78
2022-08-03T13:24:56.201Z,99090.44
2022-08-03T13:28:03.317Z,99098.81
2022-08-03T13:30:22.708Z,99087.72
2022-08-03T13:33:00.640Z,99097.22
2022-08-03T13:35:30.667Z,99080.47
2022-08-03T13:37:59.290Z,99087.44
2022-08-03T13:40:30.237Z,99092.19
2022-08-03T13:42:59.088Z,99088.44
2022-08-03T13:45:27.981Z,99087.06
2022-08-03T13:47:56.852Z,99071.88
2022-08-03T13:50:25.319Z,99079.41
2022-08-03T13:52:55.517Z,99078.41
2022-08-03T13:55:24.026Z,99071.63
2022-08-03T13:58:06.701Z,99078.13
2022-08-03T14:00:35.845Z,99085.63
2022-08-03T14:03:12.594Z,99083.78
2022-08-03T14:05:42.123Z,99063.72
2022-08-03T14:08:13.290Z,99081.75
2022-08-03T14:10:43.622Z,99075.22
2022-08-03T14:13:16.867Z,99027.66
2022-08-03T14:15:49.463Z,99057.59
2022-08-03T14:18:28.322Z,99075.22
2022-08-03T14:21:06.614Z,99092.75
2022-08-03T14:23:38.838Z,99086.19
2022-08-03T14:26:07.852Z,99082.31
2022-08-03T14:28:36.941Z,99086.53
2022-08-03T14:31:08.318Z,99084.94
2022-08-03T14:33:50.340Z,99081.13
2022-08-03T14:36:18.876Z,99099.25
2022-08-03T14:38:50.273Z,99093.53
2022-08-03T14:41:20.859Z,99088.56
2022-08-03T14:44:02.145Z,99081.59
2022-08-03T14:46:31.995Z,99088.34
2022-08-03T14:50:33.448Z,99082.28
2022-08-03T14:51:51.249Z,99069.34
2022-08-03T14:54:24.015Z,99063.03
2022-08-03T14:56:52.595Z,99080.69
2022-08-03T14:59:21.561Z,99068.84
2022-08-03T15:02:03.397Z,99081.69
2022-08-03T15:04:35.091Z,99088.25
2022-08-03T15:07:03.954Z,99057.09
2022-08-03T15:09:34.228Z,99056.41
2022-08-03T15:12:02.845Z,99080.00
2022-08-03T15:14:33.205Z,99080.41
2022-08-03T15:17:03.332Z,99060.66
2022-08-03T15:20:02.235Z,99064.31
2022-08-03T15:22:25.464Z,99060.56
2022-08-03T15:26:28.198Z,99074.63
2022-08-03T15:28:03.320Z,99069.91
2022-08-03T15:30:36.142Z,99066.34
2022-08-03T15:33:04.817Z,99060.75
2022-08-03T15:35:33.581Z,99054.03
2022-08-03T15:38:06.062Z,99061.47
2022-08-03T15:40:39.306Z,99076.97
2022-08-03T15:43:08.145Z,99084.31
2022-08-03T15:45:37.571Z,99084.25
2022-08-03T15:48:06.791Z,99086.06
2022-08-03T15:50:35.469Z,99082.09
2022-08-03T15:53:04.492Z,99088.16
2022-08-03T15:55:33.499Z,99083.66
2022-08-03T15:59:10.982Z,99076.44
2022-08-03T16:00:52.006Z,99060.66
2022-08-03T16:03:20.515Z,99074.75
2022-08-03T16:05:49.101Z,99075.69
2022-08-03T16:08:17.899Z,99066.81
2022-08-03T16:10:48.069Z,99070.84
2022-08-03T16:13:18.708Z,99065.13
2022-08-03T16:15:47.263Z,99057.38
2022-08-03T16:18:16.000Z,99066.44
2022-08-03T16:20:44.951Z,99064.94
2022-08-03T16:23:14.901Z,99061.50
2022-08-03T16:25:49.372Z,99063.13
2022-08-03T16:28:20.499Z,99063.16
2022-08-03T16:30:49.479Z,99057.75
2022-08-03T16:33:18.229Z,99064.38
2022-08-03T16:35:47.289Z,99071.03
2022-08-03T16:38:19.135Z,99077.31
2022-08-03T16:40:52.112Z,99060.19
2022-08-03T16:43:24.868Z,99062.16
2022-08-03T16:45:53.699Z,99070.00
2022-08-03T16:48:22.083Z,99068.44
2022-08-03T16:50:50.820Z,99068.44
2022-08-03T16:53:51.553Z,99064.56
2022-08-03T16:56:10.551Z,99075.09
2022-08-03T16:58:44.276Z,99060.66
2022-08-03T17:01:22.626Z,99083.63
2022-08-03T17:04:03.674Z,99082.84
2022-08-03T17:06:35.977Z,99069.97
2022-08-03T17:09:08.739Z,99091.00
2022-08-03T17:11:46.787Z,99077.72
2022-08-03T17:14:21.993Z,99089.72
2022-08-03T17:16:54.144Z,99088.16
2022-08-03T17:19:25.347Z,99078.69
2022-08-03T17:22:04.599Z,99086.84
2022-08-03T17:24:40.853Z,99097.75
2022-08-03T17:28:42.128Z,99080.88
2022-08-03T17:30:09.071Z,99096.47
2022-08-03T17:32:42.593Z,99102.19
2022-08-03T17:35:11.998Z,99115.41
2022-08-03T17:37:58.556Z,99093.09
2022-08-03T17:40:32.052Z,99110.25
2022-08-03T17:43:02.329Z,99122.72
2022-08-03T17:45:54.734Z,99112.56
2022-08-03T17:48:25.198Z,99117.97
2022-08-03T17:51:00.584Z,99044.47
2022-08-03T17:53:33.588Z,99099.91
2022-08-03T17:56:44.913Z,99114.78
2022-08-03T17:59:09.258Z,99113.16
2022-08-03T18:02:11.584Z,99120.19
2022-08-03T18:04:55.539Z,99116.97
2022-08-03T18:07:41.171Z,99127.50
2022-08-03T18:10:11.359Z,99078.94
2022-08-03T18:12:51.757Z,99132.16
2022-08-03T18:15:26.653Z,99133.28
2022-08-03T18:18:04.173Z,99135.63
2022-08-03T18:20:42.641Z,99143.06
2022-08-03T18:23:24.909Z,99148.50
2022-08-03T18:26:07.169Z,99153.59
2022-08-03T18:28:39.821Z,99140.63
2022-08-03T18:31:11.974Z,99160.59
2022-08-03T18:34:20.330Z,99164.88
2022-08-03T18:36:37.669Z,99168.75
2022-08-03T18:39:07.430Z,99155.81
2022-08-03T18:41:36.701Z,99169.84
2022-08-03T18:44:09.472Z,99169.44
2022-08-03T18:47:16.511Z,99175.22
2022-08-03T18:50:00.620Z,99177.47
2022-08-03T18:52:37.533Z,99178.53
2022-08-03T18:55:20.862Z,99178.91
2022-08-03T18:58:01.131Z,99179.97
2022-08-03T19:00:54.053Z,99166.56
2022-08-03T19:03:43.269Z,99184.06
2022-08-03T19:06:20.794Z,99186.66
2022-08-03T19:08:55.796Z,99183.84
2022-08-03T19:12:14.281Z,99192.66
2022-08-03T19:14:41.592Z,99183.44
2022-08-03T19:20:36.679Z,99159.56
2022-08-03T19:23:08.333Z,99193.78
2022-08-03T19:25:41.437Z,99190.09
2022-08-03T19:28:11.418Z,99184.84
2022-08-03T19:30:46.190Z,99182.78
2022-08-03T19:33:22.710Z,99185.75
2022-08-03T19:35:56.914Z,99182.50
2022-08-03T19:38:29.849Z,99084.69
2022-08-03T19:41:02.659Z,99175.53
2022-08-03T19:49:18.466Z,99187.31
2022-08-03T19:52:01.828Z,99187.97
2022-08-03T19:54:52.779Z,99145.94
2022-08-03T19:57:26.832Z,99185.44
2022-08-03T19:59:57.709Z,99174.81
2022-08-03T20:05:04.815Z,99175.41
2022-08-03T20:10:38.784Z,99190.38
2022-08-03T20:30:10.407Z,99197.31
2022-08-03T20:52:08.839Z,99215.50
2022-08-03T21:12:21.008Z,99225.72
2022-08-03T21:13:10.447Z,99184.75
2022-08-03T21:17:50.458Z,99202.28
2022-08-03T21:20:28.741Z,99227.00
2022-08-03T21:23:40.008Z,99234.97
2022-08-03T21:28:46.000Z,99205.72
2022-08-03T21:31:27.118Z,99216.41
2022-08-03T21:34:04.820Z,99212.47
2022-08-03T21:39:23.442Z,99227.00
2022-08-03T21:41:55.337Z,99223.28
2022-08-03T21:44:29.067Z,99218.56
2022-08-03T21:47:01.231Z,99217.69
2022-08-03T21:50:05.405Z,99219.53
2022-08-03T21:52:27.668Z,99234.88
2022-08-03T21:55:00.141Z,99233.91
2022-08-03T21:57:37.670Z,99238.31
2022-08-03T22:00:10.913Z,99238.16
2022-08-03T22:02:44.214Z,99227.63
2022-08-03T22:05:42.573Z,99242.13
2022-08-03T22:08:16.057Z,99219.31
2022-08-03T22:10:48.628Z,99213.28
2022-08-03T22:13:43.754Z,99242.75
2022-08-03T22:16:13.565Z,99235.63
2022-08-03T22:18:46.655Z,99229.00
2022-08-03T22:24:08.129Z,99243.28
2022-08-03T22:26:38.929Z,99234.63
2022-08-03T22:29:12.095Z,99237.75
2022-08-03T22:34:15.579Z,99205.50
2022-08-03T22:36:44.945Z,99249.53
2022-08-03T22:39:26.684Z,99256.88
2022-08-03T22:41:59.023Z,99258.38
2022-08-03T22:44:31.203Z,99257.94
2022-08-03T22:47:04.097Z,99253.66
2022-08-03T22:49:34.552Z,99258.59
2022-08-03T22:52:05.877Z,99248.75
2022-08-03T22:54:36.317Z,99258.53
2022-08-03T22:57:09.486Z,99248.75
2022-08-03T22:59:42.091Z,99268.53
2022-08-03T23:02:20.600Z,99264.97
2022-08-03T23:04:54.741Z,99245.88
2022-08-03T23:07:31.395Z,99262.13
2022-08-03T23:10:03.732Z,99254.28
2022-08-03T23:18:08.455Z,99272.09
2022-08-03T23:20:50.306Z,99273.22
2022-08-03T23:23:21.904Z,99274.03
2022-08-03T23:25:53.649Z,99254.25
2022-08-03T23:28:27.187Z,99273.81
2022-08-03T23:33:43.296Z,99276.78
2022-08-03T23:39:05.188Z,99263.38
2022-08-03T23:44:17.193Z,99279.38
2022-08-03T23:52:50.912Z,99290.97
